< < Back
Terminal Aerodrome Forecast


Current Version              Previous Versions:   1  2  3  4  5  6  7  8  9  

Terminal Aerodrome Forecast

070
FTUS44 KBMX 281130
TAFBHM
TAF
KBHM 281130Z 2812/2912 31003KT P6SM SCT250
     FM281700 32006KT P6SM VCTS SCT050CB
     FM290200 34004KT P6SM SCT250=



Latest METAR

089
SAUS70 KWBC 282100 RRC
MTRBHM
METAR KBHM 282053Z 24005KT 10SM FEW040 SCT080 34/23 A2998 RMK AO2 SLP141
60000 T03390233 58016


USA.gov is the U.S. government's official web portal to all federal, state and local government web resources and services.